Time;durP1;ratioP1;P1;durP2;ratioP2;P2;SDS_P1;SDS_P2;PMS_P1;PMS_P2;Temp;Humidity;BMP_temperature;BMP_pressure;BME280_temperature;BME280_humidity;BME280_pressure;Samples;Min_cycle;Max_cycle;Signal;HPM_P1;HPM_P2
2024/03/23 00:00:54;;;;;;;19.73;7.50;;;8.20;99.90;;;;;;4879331;29;20466;-69
2024/03/23 00:03:24;;;;;;;21.27;8.17;;;8.20;99.90;;;;;;4879513;29;20557;-69
2024/03/23 00:05:53;;;;;;;14.37;7.70;;;8.20;99.90;;;;;;4879271;29;20977;-69
2024/03/23 00:08:23;;;;;;;18.60;7.87;;;8.10;99.90;;;;;;4879202;29;20453;-69
2024/03/23 00:10:52;;;;;;;17.77;7.63;;;8.10;99.90;;;;;;4879242;29;20993;-68
2024/03/23 00:13:22;;;;;;;16.50;6.97;;;8.10;99.90;;;;;;4879013;29;20470;-69
2024/03/23 00:15:51;;;;;;;18.40;7.43;;;8.10;99.90;;;;;;4879067;29;20449;-69
2024/03/23 00:18:23;;;;;;;23.73;8.17;;;8.00;99.90;;;;;;4879031;29;20470;-69
2024/03/23 00:20:54;;;;;;;17.97;7.30;;;8.10;99.90;;;;;;4879202;29;20547;-68
2024/03/23 00:23:24;;;;;;;19.60;7.87;;;8.00;99.90;;;;;;4879259;29;20438;-69
2024/03/23 00:25:53;;;;;;;18.03;7.60;;;8.00;99.90;;;;;;4878987;29;20858;-69
2024/03/23 00:28:23;;;;;;;15.03;7.10;;;8.00;99.90;;;;;;4879119;29;20456;-68
2024/03/23 00:30:52;;;;;;;17.70;7.20;;;8.00;99.90;;;;;;4878711;29;20466;-69
2024/03/23 00:33:22;;;;;;;21.73;7.37;;;8.00;99.90;;;;;;4878971;29;20454;-68
2024/03/23 00:35:51;;;;;;;15.57;6.47;;;8.00;99.90;;;;;;4878715;29;20497;-69
2024/03/23 00:38:24;;;;;;;18.23;6.83;;;8.00;99.90;;;;;;4878822;29;21018;-68
2024/03/23 00:40:53;;;;;;;23.07;6.87;;;7.90;99.90;;;;;;4878852;29;20477;-68
2024/03/23 00:43:23;;;;;;;17.87;6.80;;;7.90;99.90;;;;;;4878689;29;20506;-68
2024/03/23 00:45:52;;;;;;;19.60;8.10;;;7.90;99.90;;;;;;4878699;29;20517;-68
2024/03/23 00:48:22;;;;;;;18.97;7.23;;;7.90;99.90;;;;;;4878961;29;20518;-69
2024/03/23 00:50:51;;;;;;;17.87;7.10;;;7.90;99.90;;;;;;4879025;29;20960;-69
2024/03/23 00:53:21;;;;;;;18.47;7.50;;;7.90;99.90;;;;;;4878586;29;20462;-68
2024/03/23 00:55:49;;;;;;;33.13;7.83;;;7.90;99.90;;;;;;4878534;29;21023;-68
2024/03/23 00:58:16;;;;;;;22.20;7.57;;;7.80;99.90;;;;;;4878614;29;20956;-68
2024/03/23 01:00:42;;;;;;;16.60;6.90;;;7.80;99.90;;;;;;4877570;29;20542;-68
2024/03/23 01:03:10;;;;;;;16.97;6.90;;;7.80;99.90;;;;;;4878455;29;20454;-69
2024/03/23 01:05:36;;;;;;;18.70;8.00;;;7.80;99.90;;;;;;4878664;29;20967;-69
2024/03/23 01:08:03;;;;;;;17.10;6.60;;;7.80;99.90;;;;;;4878350;29;20867;-69
2024/03/23 01:10:30;;;;;;;18.47;6.90;;;7.80;99.90;;;;;;4878797;29;20470;-69
2024/03/23 01:12:59;;;;;;;15.20;6.70;;;7.70;99.90;;;;;;4878060;29;20454;-69
2024/03/23 01:15:25;;;;;;;17.37;6.20;;;7.70;99.90;;;;;;4878559;29;20458;-68
2024/03/23 01:17:52;;;;;;;18.53;6.53;;;7.70;99.90;;;;;;4878205;29;20446;-68
2024/03/23 01:20:19;;;;;;;16.40;7.57;;;7.70;99.90;;;;;;4878138;29;20545;-68
2024/03/23 01:22:46;;;;;;;16.10;6.47;;;7.70;99.90;;;;;;4878500;29;20604;-69
2024/03/23 01:25:12;;;;;;;22.17;6.30;;;7.70;99.90;;;;;;4878429;29;20480;-69
2024/03/23 01:27:40;;;;;;;16.90;6.23;;;7.70;99.90;;;;;;4878660;29;20461;-68
2024/03/23 01:30:08;;;;;;;18.67;7.30;;;7.70;99.90;;;;;;4878367;29;20481;-69
2024/03/23 01:32:35;;;;;;;18.93;7.30;;;7.70;99.90;;;;;;4878107;29;21028;-66
2024/03/23 01:35:02;;;;;;;18.50;6.60;;;7.60;99.90;;;;;;4878100;29;20454;-67
2024/03/23 01:37:29;;;;;;;17.80;7.67;;;7.60;99.90;;;;;;4877943;29;20461;-67
2024/03/23 01:39:55;;;;;;;19.87;6.87;;;7.60;99.90;;;;;;4877989;29;20544;-68
2024/03/23 01:42:23;;;;;;;13.03;6.57;;;7.60;99.90;;;;;;4878015;29;20454;-67
2024/03/23 01:44:49;;;;;;;19.27;6.80;;;7.60;99.90;;;;;;4877870;29;20779;-68
2024/03/23 01:47:17;;;;;;;20.23;6.60;;;7.60;99.90;;;;;;4878115;29;20447;-67
2024/03/23 01:49:44;;;;;;;17.47;6.13;;;7.60;99.90;;;;;;4877956;29;20457;-68
2024/03/23 01:52:14;;;;;;;20.20;7.37;;;7.60;99.90;;;;;;4878242;29;20476;-68
2024/03/23 01:54:41;;;;;;;13.00;6.10;;;7.50;99.90;;;;;;4878034;29;20857;-67
2024/03/23 01:57:08;;;;;;;17.33;6.57;;;7.50;99.90;;;;;;4877914;29;20508;-67
2024/03/23 01:59:35;;;;;;;24.30;7.70;;;7.50;99.90;;;;;;4877901;29;20487;-67
2024/03/23 02:02:02;;;;;;;24.43;7.70;;;7.50;99.90;;;;;;4877823;29;20983;-67
2024/03/23 02:04:31;;;;;;;14.80;6.77;;;7.50;99.90;;;;;;4877879;29;20557;-67
2024/03/23 02:06:59;;;;;;;23.27;6.63;;;7.50;99.90;;;;;;4877803;29;20450;-67
2024/03/23 02:09:25;;;;;;;18.70;7.40;;;7.50;99.90;;;;;;4877773;29;20466;-67
2024/03/23 02:11:52;;;;;;;19.77;7.30;;;7.40;99.90;;;;;;4879987;29;20465;-68
2024/03/23 02:14:18;;;;;;;24.10;8.90;;;7.40;99.90;;;;;;4881304;29;20808;-67
2024/03/23 02:16:47;;;;;;;22.40;7.37;;;7.40;99.90;;;;;;4881736;29;20472;-67
2024/03/23 02:19:13;;;;;;;18.30;7.97;;;7.40;99.90;;;;;;4881111;29;20984;-68
2024/03/23 02:21:41;;;;;;;24.27;8.43;;;7.40;99.90;;;;;;4881202;29;20987;-68
2024/03/23 02:24:09;;;;;;;19.73;7.13;;;7.40;99.90;;;;;;4881375;29;20461;-68
2024/03/23 02:26:36;;;;;;;22.73;7.57;;;7.40;99.90;;;;;;4881087;29;20457;-68
2024/03/23 02:29:03;;;;;;;20.80;6.80;;;7.30;99.90;;;;;;4881001;29;20461;-68
2024/03/23 02:31:30;;;;;;;17.03;6.43;;;7.40;99.90;;;;;;4880838;29;20477;-68
2024/03/23 02:33:56;;;;;;;24.37;7.13;;;7.30;99.90;;;;;;4880962;29;20457;-68
2024/03/23 02:36:24;;;;;;;22.73;7.07;;;7.30;99.90;;;;;;4881088;29;20461;-68
2024/03/23 02:38:50;;;;;;;14.17;6.63;;;7.30;99.90;;;;;;4880839;29;20454;-68
2024/03/23 02:41:22;;;;;;;18.90;7.07;;;7.30;99.90;;;;;;4880725;29;20483;-68
2024/03/23 02:43:49;;;;;;;18.47;6.70;;;7.30;99.90;;;;;;4881011;29;20464;-69
2024/03/23 02:46:17;;;;;;;17.87;6.73;;;7.30;99.90;;;;;;4881262;29;20996;-69
2024/03/23 02:48:43;;;;;;;18.23;6.60;;;7.30;99.90;;;;;;4880525;29;20462;-69
2024/03/23 02:51:10;;;;;;;17.97;7.10;;;7.30;99.90;;;;;;4880602;29;20978;-69
2024/03/23 02:53:37;;;;;;;16.87;7.53;;;7.20;99.90;;;;;;4880623;29;20450;-69
2024/03/23 02:56:05;;;;;;;18.87;7.43;;;7.30;99.90;;;;;;4880713;29;20471;-69
2024/03/23 02:58:32;;;;;;;19.90;7.60;;;7.20;99.90;;;;;;4880781;29;20491;-69
2024/03/23 03:01:00;;;;;;;18.73;7.40;;;7.20;99.90;;;;;;4880653;29;20489;-69
2024/03/23 03:03:26;;;;;;;20.87;6.47;;;7.20;99.90;;;;;;4880448;29;20450;-69
2024/03/23 03:05:56;;;;;;;13.83;6.50;;;7.20;99.90;;;;;;4880346;29;20468;-69
2024/03/23 03:08:22;;;;;;;18.27;6.87;;;7.20;99.90;;;;;;4880747;29;20427;-69
2024/03/23 03:10:50;;;;;;;21.40;7.10;;;7.20;99.90;;;;;;4895853;29;20470;-69
2024/03/23 03:13:16;;;;;;;16.80;6.20;;;7.20;99.90;;;;;;4880124;29;20465;-69
2024/03/23 03:15:45;;;;;;;17.93;7.60;;;7.20;99.90;;;;;;4896420;29;20779;-68
2024/03/23 03:18:11;;;;;;;20.70;7.00;;;7.20;99.90;;;;;;4880160;29;20477;-69
2024/03/23 03:20:40;;;;;;;15.87;7.30;;;7.10;99.90;;;;;;4880027;29;20508;-69
2024/03/23 03:23:06;;;;;;;20.70;7.40;;;7.10;99.90;;;;;;4879432;29;20473;-69
2024/03/23 03:25:34;;;;;;;18.57;7.50;;;7.10;99.90;;;;;;4879978;29;20497;-69
2024/03/23 03:28:01;;;;;;;18.07;6.50;;;7.10;99.90;;;;;;4880007;29;20464;-69
2024/03/23 03:30:29;;;;;;;19.90;7.03;;;7.10;99.90;;;;;;4880081;29;20979;-69
2024/03/23 03:32:56;;;;;;;26.50;6.90;;;7.10;99.90;;;;;;4880417;29;20449;-69
2024/03/23 03:35:24;;;;;;;20.90;7.10;;;7.10;99.90;;;;;;4879967;29;20490;-69
2024/03/23 03:37:50;;;;;;;21.17;7.27;;;7.10;99.90;;;;;;4879895;29;20457;-69
2024/03/23 03:40:17;;;;;;;18.90;7.30;;;7.10;99.90;;;;;;4879785;29;20943;-69
2024/03/23 03:42:44;;;;;;;20.83;7.20;;;7.10;99.90;;;;;;4879932;29;20941;-69
2024/03/23 03:45:11;;;;;;;21.30;7.00;;;7.10;99.90;;;;;;4879730;29;20485;-68
2024/03/23 03:47:38;;;;;;;16.33;6.53;;;7.10;99.90;;;;;;4879773;29;20456;-69
2024/03/23 03:50:07;;;;;;;20.33;7.67;;;7.00;99.90;;;;;;4879579;29;20502;-69
2024/03/23 03:52:33;;;;;;;22.30;6.30;;;7.00;99.90;;;;;;4864144;29;20463;-69
2024/03/23 03:55:03;;;;;;;16.83;7.20;;;7.00;99.90;;;;;;4879556;29;20458;-69
2024/03/23 03:57:30;;;;;;;20.67;6.83;;;7.00;99.90;;;;;;4879625;29;20544;-69
2024/03/23 03:59:57;;;;;;;19.73;6.83;;;7.00;99.90;;;;;;4879403;29;20485;-69
2024/03/23 04:02:23;;;;;;;23.33;7.63;;;7.00;99.90;;;;;;4879328;29;20974;-69
2024/03/23 04:04:51;;;;;;;16.40;6.87;;;7.00;99.90;;;;;;4879235;29;20506;-69
2024/03/23 04:07:20;;;;;;;19.00;7.70;;;6.90;99.90;;;;;;4879888;29;20508;-69
2024/03/23 04:09:47;;;;;;;20.80;7.13;;;7.00;99.90;;;;;;4879215;29;20475;-68
2024/03/23 04:12:14;;;;;;;21.80;7.00;;;7.00;99.90;;;;;;4879258;29;20537;-69
2024/03/23 04:14:41;;;;;;;21.70;7.30;;;6.90;99.90;;;;;;4879811;29;20461;-69
2024/03/23 04:17:07;;;;;;;20.10;6.53;;;6.90;99.90;;;;;;4879185;29;20457;-69
2024/03/23 04:19:35;;;;;;;28.00;7.30;;;6.90;99.90;;;;;;4879504;29;20481;-69
2024/03/23 04:22:01;;;;;;;21.43;7.53;;;6.90;99.90;;;;;;4879164;29;20469;-69
2024/03/23 04:24:30;;;;;;;19.70;7.37;;;6.90;99.90;;;;;;4879159;29;20465;-68
2024/03/23 04:26:56;;;;;;;24.77;6.90;;;6.90;99.90;;;;;;4879239;29;20896;-69
2024/03/23 04:29:26;;;;;;;17.23;6.67;;;6.90;99.90;;;;;;4879060;29;20456;-69
2024/03/23 04:31:53;;;;;;;22.67;7.23;;;6.90;99.90;;;;;;4878986;29;20881;-69
2024/03/23 04:34:20;;;;;;;17.70;7.60;;;6.90;99.90;;;;;;4878844;29;20451;-69
2024/03/23 04:36:46;;;;;;;17.37;7.17;;;6.90;99.90;;;;;;4878844;29;20456;-69
2024/03/23 04:39:13;;;;;;;22.43;7.63;;;6.80;99.90;;;;;;4879367;29;20458;-69
2024/03/23 04:41:42;;;;;;;19.27;7.30;;;6.80;99.90;;;;;;4878669;29;20907;-69
2024/03/23 04:44:10;;;;;;;16.70;6.80;;;6.80;99.90;;;;;;4878867;29;20455;-69
2024/03/23 04:46:37;;;;;;;19.33;7.23;;;6.80;99.90;;;;;;4878666;29;20463;-69
2024/03/23 04:49:04;;;;;;;23.57;7.40;;;6.80;99.90;;;;;;4878669;29;20456;-69
2024/03/23 04:51:37;;;;;;;20.67;7.47;;;6.80;99.90;;;;;;4878573;29;20876;-69
2024/03/23 04:54:05;;;;;;;18.73;7.57;;;6.80;99.90;;;;;;4878509;29;20464;-69
2024/03/23 04:56:31;;;;;;;22.43;7.37;;;6.80;99.90;;;;;;4862973;29;20457;-69
2024/03/23 04:59:01;;;;;;;18.10;7.43;;;6.80;99.90;;;;;;4878510;29;20456;-69
2024/03/23 05:01:28;;;;;;;17.77;7.03;;;6.80;99.90;;;;;;4878353;29;20484;-68
2024/03/23 05:03:55;;;;;;;17.63;6.70;;;6.80;99.90;;;;;;4878384;29;20456;-69
2024/03/23 05:06:21;;;;;;;18.50;6.50;;;6.80;99.90;;;;;;4878316;29;21035;-69
2024/03/23 05:08:49;;;;;;;18.77;6.40;;;6.70;99.90;;;;;;4878454;29;20458;-69
2024/03/23 05:11:15;;;;;;;16.37;6.23;;;6.80;99.90;;;;;;4878256;29;20471;-69
2024/03/23 05:13:43;;;;;;;22.27;7.17;;;6.70;99.90;;;;;;4878307;29;20457;-69
2024/03/23 05:16:10;;;;;;;17.53;7.37;;;6.70;99.90;;;;;;4878382;29;20477;-69
2024/03/23 05:18:38;;;;;;;20.13;7.67;;;6.70;99.90;;;;;;4878336;29;20823;-69
2024/03/23 05:21:04;;;;;;;18.77;7.30;;;6.70;99.90;;;;;;4878110;29;20516;-69
2024/03/23 05:23:31;;;;;;;20.43;8.60;;;6.60;99.90;;;;;;4878197;29;20550;-69
2024/03/23 05:25:58;;;;;;;19.10;8.17;;;6.70;99.90;;;;;;4878392;29;20872;-69
2024/03/23 05:28:25;;;;;;;22.90;7.30;;;6.60;99.90;;;;;;4878152;29;20459;-69
2024/03/23 05:30:51;;;;;;;17.87;6.53;;;6.60;99.90;;;;;;4878277;29;20479;-69
2024/03/23 05:33:21;;;;;;;17.70;7.97;;;6.60;99.90;;;;;;4878164;29;20454;-69
2024/03/23 05:35:55;;;;;;;15.13;6.70;;;6.60;99.90;;;;;;4878030;29;20822;-69
2024/03/23 05:38:23;;;;;;;24.17;7.00;;;6.50;99.90;;;;;;4878058;29;20449;-69
2024/03/23 05:40:53;;;;;;;15.87;6.13;;;6.50;99.90;;;;;;4877976;29;20580;-69
2024/03/23 05:43:21;;;;;;;25.07;7.80;;;6.50;99.90;;;;;;4878108;29;20445;-69
2024/03/23 05:45:53;;;;;;;17.10;6.27;;;6.50;99.90;;;;;;4879107;29;20453;-69
2024/03/23 05:48:22;;;;;;;19.73;7.10;;;6.40;99.90;;;;;;4881761;29;20433;-69
2024/03/23 05:50:49;;;;;;;22.33;7.80;;;6.40;99.90;;;;;;4881592;29;20480;-69
2024/03/23 05:53:16;;;;;;;18.70;7.07;;;6.40;99.90;;;;;;4881875;29;20548;-67
2024/03/23 05:55:42;;;;;;;18.00;6.13;;;6.40;99.90;;;;;;4882126;29;20464;-67
2024/03/23 05:58:11;;;;;;;20.33;8.10;;;6.40;99.90;;;;;;4881554;29;20453;-67
2024/03/23 06:00:37;;;;;;;17.57;7.17;;;6.40;99.90;;;;;;4881440;29;20993;-67
2024/03/23 06:03:05;;;;;;;18.90;7.70;;;6.30;99.90;;;;;;4881500;29;20449;-67
2024/03/23 06:05:32;;;;;;;17.90;6.30;;;6.30;99.90;;;;;;4881515;29;20457;-67
2024/03/23 06:07:59;;;;;;;13.53;7.10;;;6.30;99.90;;;;;;4881432;29;20463;-66
2024/03/23 06:10:26;;;;;;;18.37;6.70;;;6.30;99.90;;;;;;4897110;29;20816;-67
2024/03/23 06:12:53;;;;;;;24.97;6.77;;;6.30;99.90;;;;;;4881318;29;20473;-67
2024/03/23 06:15:19;;;;;;;16.47;6.70;;;6.30;99.90;;;;;;4882010;29;20994;-67
2024/03/23 06:17:47;;;;;;;23.27;8.53;;;6.30;99.90;;;;;;4882368;29;20451;-67
2024/03/23 06:20:13;;;;;;;16.10;7.00;;;6.30;99.90;;;;;;4881386;29;20492;-67
2024/03/23 06:22:42;;;;;;;22.60;8.80;;;6.30;99.90;;;;;;4881294;29;20460;-67
2024/03/23 06:25:08;;;;;;;18.00;8.50;;;6.40;99.90;;;;;;4881221;29;20450;-67
2024/03/23 06:27:36;;;;;;;27.90;7.77;;;6.50;99.90;;;;;;4881447;29;20460;-67
2024/03/23 06:30:02;;;;;;;22.40;8.30;;;6.50;99.90;;;;;;4881077;29;20862;-67
2024/03/23 06:32:29;;;;;;;19.00;7.10;;;6.60;99.90;;;;;;4881127;29;20457;-68
2024/03/23 06:34:56;;;;;;;23.53;8.73;;;6.80;99.90;;;;;;4881031;29;20541;-68
2024/03/23 06:37:23;;;;;;;20.87;9.20;;;6.90;99.90;;;;;;4881050;29;20464;-68
2024/03/23 06:39:51;;;;;;;22.03;9.23;;;7.00;99.90;;;;;;4880781;29;20457;-68
2024/03/23 06:42:18;;;;;;;16.70;8.40;;;7.10;99.90;;;;;;4880920;29;20523;-68
2024/03/23 06:44:44;;;;;;;23.40;8.13;;;7.20;99.90;;;;;;4880880;29;20453;-68
2024/03/23 06:47:12;;;;;;;15.00;8.40;;;7.30;99.90;;;;;;4881495;29;20450;-68
2024/03/23 06:49:38;;;;;;;14.63;7.73;;;7.40;99.90;;;;;;4880776;29;20454;-68
2024/03/23 06:52:06;;;;;;;21.97;7.70;;;7.40;99.90;;;;;;4880816;29;20513;-68
2024/03/23 06:54:32;;;;;;;17.07;7.20;;;7.50;99.90;;;;;;4880709;29;20940;-68
2024/03/23 06:57:00;;;;;;;21.23;7.57;;;7.50;99.90;;;;;;4879968;29;20457;-68
2024/03/23 06:59:27;;;;;;;18.43;9.20;;;7.50;99.90;;;;;;4880522;29;20489;-68
2024/03/23 07:01:54;;;;;;;20.77;8.40;;;7.50;99.90;;;;;;4881045;29;20480;-68
2024/03/23 07:04:21;;;;;;;18.27;8.37;;;7.50;99.90;;;;;;4880744;29;20454;-68
2024/03/23 07:06:48;;;;;;;15.90;8.30;;;7.50;99.90;;;;;;4880838;29;20496;-68
2024/03/23 07:09:14;;;;;;;22.57;8.60;;;7.50;99.90;;;;;;4880393;29;20453;-68
2024/03/23 07:11:42;;;;;;;18.80;8.20;;;7.50;99.90;;;;;;4880275;29;20467;-69
2024/03/23 07:14:12;;;;;;;16.70;8.20;;;7.50;99.90;;;;;;4896539;29;20478;-68
2024/03/23 07:16:39;;;;;;;17.90;9.23;;;7.60;99.90;;;;;;4880486;29;20807;-68
2024/03/23 07:19:05;;;;;;;16.40;8.70;;;7.60;99.90;;;;;;4896733;29;20512;-68
2024/03/23 07:21:32;;;;;;;17.83;9.20;;;7.60;99.90;;;;;;4880853;29;20867;-68
2024/03/23 07:23:59;;;;;;;14.10;7.10;;;7.70;99.90;;;;;;4880708;29;20457;-68
2024/03/23 07:26:29;;;;;;;16.40;7.70;;;7.80;99.90;;;;;;4880379;29;20458;-68
2024/03/23 07:28:56;;;;;;;17.13;8.30;;;7.80;99.90;;;;;;4896244;29;20446;-69
2024/03/23 07:31:25;;;;;;;16.40;7.00;;;7.80;99.90;;;;;;4880920;29;20474;-69
2024/03/23 07:33:51;;;;;;;15.73;6.63;;;7.90;99.90;;;;;;4880243;29;20490;-69
2024/03/23 07:36:18;;;;;;;14.93;6.90;;;7.90;99.90;;;;;;4880360;29;20458;-69
2024/03/23 07:38:47;;;;;;;17.80;6.53;;;7.90;99.90;;;;;;4880615;29;20822;-69
2024/03/23 07:41:18;;;;;;;11.87;6.03;;;8.00;99.90;;;;;;4880000;29;20482;-69
2024/03/23 07:43:45;;;;;;;15.37;6.20;;;8.00;99.90;;;;;;4880293;29;20441;-69
2024/03/23 07:46:13;;;;;;;21.10;6.87;;;8.10;99.90;;;;;;4880186;29;20457;-69
2024/03/23 07:48:42;;;;;;;18.03;6.20;;;8.20;99.90;;;;;;4880204;29;20461;-69
2024/03/23 07:51:10;;;;;;;15.57;6.20;;;8.20;99.90;;;;;;4880115;29;20470;-69
2024/03/23 07:53:37;;;;;;;14.27;6.27;;;8.20;99.90;;;;;;4879881;29;20461;-68
2024/03/23 07:56:09;;;;;;;11.10;5.70;;;8.30;99.90;;;;;;4879850;29;20450;-68
2024/03/23 07:58:36;;;;;;;12.97;5.80;;;8.40;99.90;;;;;;4879644;29;20498;-69
2024/03/23 08:01:08;;;;;;;15.53;6.90;;;8.40;99.90;;;;;;4879441;29;20482;-69
2024/03/23 08:03:35;;;;;;;12.97;6.43;;;8.50;99.90;;;;;;4879622;29;20461;-69
2024/03/23 08:06:13;;;;;;;15.30;6.07;;;8.60;99.90;;;;;;4879608;29;20940;-69
2024/03/23 08:08:43;;;;;;;11.13;5.63;;;8.80;99.90;;;;;;4880524;29;20438;-69
2024/03/23 08:11:10;;;;;;;15.83;6.17;;;8.90;99.90;;;;;;4879992;29;20470;-69
2024/03/23 08:13:39;;;;;;;14.60;5.30;;;9.00;99.90;;;;;;4880584;29;20458;-69
2024/03/23 08:16:08;;;;;;;14.60;5.43;;;9.10;99.90;;;;;;4879516;29;20456;-69
2024/03/23 08:18:35;;;;;;;11.43;5.70;;;9.20;99.90;;;;;;4879378;29;20518;-70
2024/03/23 08:21:04;;;;;;;13.57;4.97;;;9.30;99.90;;;;;;4880523;29;20972;-70
2024/03/23 08:23:33;;;;;;;13.70;5.10;;;9.40;99.90;;;;;;4880414;29;20446;-69
2024/03/23 08:26:01;;;;;;;13.53;5.87;;;9.50;99.90;;;;;;4880022;29;20466;-69
2024/03/23 08:28:28;;;;;;;17.60;6.00;;;9.60;99.90;;;;;;4879940;29;20894;-70
2024/03/23 08:30:56;;;;;;;10.87;5.10;;;9.70;99.90;;;;;;4879108;29;20881;-70
2024/03/23 08:33:24;;;;;;;10.67;4.43;;;9.70;99.90;;;;;;4879577;29;20892;-69
2024/03/23 08:35:56;;;;;;;10.33;4.50;;;9.60;99.90;;;;;;4881018;29;20927;-70
2024/03/23 08:38:23;;;;;;;9.90;4.93;;;9.70;99.90;;;;;;4880297;29;20450;-70
2024/03/23 08:40:59;;;;;;;12.60;5.27;;;9.70;99.90;;;;;;4880307;29;21058;-70
2024/03/23 08:43:26;;;;;;;9.90;4.80;;;9.70;99.90;;;;;;4896808;29;20512;-69
2024/03/23 08:45:53;;;;;;;9.90;4.57;;;9.80;99.90;;;;;;4880514;29;20461;-70
2024/03/23 08:48:20;;;;;;;10.73;4.80;;;9.90;99.90;;;;;;4880156;29;20948;-69
2024/03/23 08:50:48;;;;;;;9.30;3.77;;;9.90;99.90;;;;;;4863654;29;21015;-70
2024/03/23 08:53:15;;;;;;;12.23;4.17;;;9.80;99.90;;;;;;4879848;29;20450;-68
2024/03/23 08:55:42;;;;;;;7.40;3.60;;;9.80;99.90;;;;;;4879655;29;20458;-70
2024/03/23 08:58:10;;;;;;;14.13;5.10;;;9.70;99.90;;;;;;4879153;29;20450;-69
2024/03/23 09:00:37;;;;;;;10.13;3.80;;;9.70;99.90;;;;;;4878923;29;20511;-69
2024/03/23 09:03:04;;;;;;;11.07;3.47;;;9.70;99.90;;;;;;4879284;29;20457;-70
2024/03/23 09:05:35;;;;;;;9.57;3.90;;;9.80;99.90;;;;;;4879053;29;20461;-69
2024/03/23 09:08:02;;;;;;;9.10;3.90;;;9.80;99.90;;;;;;4894915;29;20917;-70
2024/03/23 09:10:29;;;;;;;8.50;3.63;;;9.80;99.90;;;;;;4879430;29;20537;-70
2024/03/23 09:12:55;;;;;;;9.23;3.70;;;9.80;99.90;;;;;;4878997;29;20457;-69
2024/03/23 09:15:24;;;;;;;10.63;4.30;;;9.70;99.90;;;;;;4879248;29;20446;-69
2024/03/23 09:17:51;;;;;;;8.10;4.10;;;9.70;99.90;;;;;;4878952;29;20970;-70
2024/03/23 09:20:18;;;;;;;6.40;3.60;;;9.60;99.90;;;;;;4878165;29;20481;-69
2024/03/23 09:22:44;;;;;;;6.30;3.53;;;9.50;99.90;;;;;;4863554;29;20479;-68
2024/03/23 09:25:11;;;;;;;9.27;3.97;;;9.60;99.90;;;;;;4879301;29;20988;-69
2024/03/23 09:27:38;;;;;;;7.83;4.30;;;9.50;99.90;;;;;;4878939;29;20450;-69
2024/03/23 09:30:06;;;;;;;9.73;4.00;;;9.50;99.90;;;;;;4878774;29;20548;-69
2024/03/23 09:32:34;;;;;;;9.67;3.63;;;9.50;99.90;;;;;;4879507;29;20451;-69
2024/03/23 09:35:01;;;;;;;8.50;3.60;;;9.50;99.90;;;;;;4878846;29;20860;-69
2024/03/23 09:37:28;;;;;;;8.53;3.30;;;9.60;99.90;;;;;;4878892;29;20458;-69
2024/03/23 09:39:55;;;;;;;8.77;3.30;;;9.60;99.90;;;;;;4878526;29;20457;-69
2024/03/23 09:42:21;;;;;;;6.10;3.10;;;9.60;99.90;;;;;;4878609;29;20477;-69
2024/03/23 09:44:52;;;;;;;8.57;3.10;;;9.60;99.90;;;;;;4878603;29;20537;-69
2024/03/23 09:47:18;;;;;;;5.43;2.80;;;9.50;99.90;;;;;;4878148;29;20443;-70
2024/03/23 09:49:47;;;;;;;8.30;3.40;;;9.50;99.90;;;;;;4878373;29;20958;-70
2024/03/23 09:52:13;;;;;;;6.57;3.30;;;9.60;99.90;;;;;;4878112;29;20492;-70
2024/03/23 09:54:41;;;;;;;9.17;3.90;;;9.50;99.90;;;;;;4878093;29;20963;-70
2024/03/23 09:57:07;;;;;;;9.67;3.70;;;9.60;99.90;;;;;;4878319;29;20958;-70
2024/03/23 09:59:35;;;;;;;8.17;3.50;;;9.60;99.90;;;;;;4878297;29;20983;-70
2024/03/23 10:02:01;;;;;;;9.77;3.43;;;9.60;99.90;;;;;;4862535;29;20482;-70
2024/03/23 10:04:38;;;;;;;10.00;3.60;;;9.60;99.90;;;;;;4877975;29;20461;-70
2024/03/23 10:07:16;;;;;;;8.40;3.40;;;9.70;99.90;;;;;;4877946;29;20860;-70
2024/03/23 10:09:44;;;;;;;8.00;3.77;;;9.70;99.90;;;;;;4878298;29;20823;-70
2024/03/23 10:12:12;;;;;;;8.00;3.53;;;9.80;99.90;;;;;;4878372;29;20486;-70
2024/03/23 10:14:39;;;;;;;7.10;3.97;;;9.90;99.90;;;;;;4877989;29;20442;-70
2024/03/23 10:17:17;;;;;;;6.87;3.47;;;9.90;99.90;;;;;;4877938;29;20450;-70
2024/03/23 10:19:45;;;;;;;6.60;3.43;;;9.90;99.90;;;;;;4862680;29;20442;-70
2024/03/23 10:22:17;;;;;;;8.00;4.03;;;9.90;99.90;;;;;;4877735;29;20482;-70
2024/03/23 10:24:44;;;;;;;8.07;4.17;;;9.90;99.90;;;;;;4878166;29;20446;-69
2024/03/23 10:27:16;;;;;;;9.37;3.80;;;10.00;99.90;;;;;;4879112;29;20462;-70
2024/03/23 10:29:44;;;;;;;6.93;3.83;;;10.00;99.90;;;;;;4878358;29;20431;-70
2024/03/23 10:32:11;;;;;;;7.00;3.20;;;10.10;99.90;;;;;;4894791;29;20473;-70
2024/03/23 10:34:39;;;;;;;5.37;3.10;;;10.20;99.90;;;;;;4865764;29;20454;-70
2024/03/23 10:37:06;;;;;;;6.13;2.87;;;10.30;99.90;;;;;;4881332;29;20454;-70
2024/03/23 10:39:38;;;;;;;6.73;2.80;;;10.20;99.90;;;;;;4881704;29;20450;-69
2024/03/23 10:42:06;;;;;;;6.27;3.80;;;10.20;99.90;;;;;;4881198;29;20593;-70
2024/03/23 10:44:33;;;;;;;10.70;3.50;;;10.20;99.90;;;;;;4880924;29;20447;-70
2024/03/23 10:47:01;;;;;;;5.10;3.23;;;10.20;99.90;;;;;;4880961;29;20458;-70
2024/03/23 10:49:30;;;;;;;4.90;3.13;;;10.20;99.90;;;;;;4881181;29;20458;-69
2024/03/23 10:52:00;;;;;;;6.73;3.40;;;10.10;99.90;;;;;;4880809;29;20537;-70
2024/03/23 10:54:29;;;;;;;7.63;3.80;;;10.10;99.90;;;;;;4880987;29;20501;-70
2024/03/23 10:57:03;;;;;;;9.03;3.53;;;10.10;99.90;;;;;;4880922;29;20458;-70
2024/03/23 10:59:32;;;;;;;7.50;3.23;;;10.10;99.90;;;;;;4880920;29;20880;-70
2024/03/23 11:01:59;;;;;;;14.20;3.80;;;10.10;99.90;;;;;;4865448;29;20822;-70
2024/03/23 11:04:34;;;;;;;7.00;3.50;;;10.10;99.90;;;;;;4881235;29;20509;-70
2024/03/23 11:07:00;;;;;;;4.20;2.70;;;10.00;99.90;;;;;;4883756;29;20979;-70
2024/03/23 11:09:41;;;;;;;5.90;2.90;;;10.00;99.90;;;;;;4882699;29;20446;-70
2024/03/23 11:12:30;;;;;;;5.90;2.83;;;10.00;99.90;;;;;;4881156;29;20483;-70
2024/03/23 11:15:00;;;;;;;4.17;2.63;;;10.10;99.90;;;;;;4880854;29;20497;-70
2024/03/23 11:17:27;;;;;;;6.87;3.73;;;10.10;99.90;;;;;;4880553;29;20877;-70
2024/03/23 11:19:56;;;;;;;5.73;3.20;;;10.10;99.90;;;;;;4880823;29;20477;-70
2024/03/23 11:22:42;;;;;;;6.80;3.10;;;10.10;99.90;;;;;;4880433;29;20481;-70
2024/03/23 11:25:14;;;;;;;12.50;3.30;;;10.10;99.90;;;;;;4864833;29;20445;-70
2024/03/23 11:27:44;;;;;;;9.27;3.33;;;10.10;99.90;;;;;;4880247;29;20545;-70
2024/03/23 11:30:16;;;;;;;5.70;3.57;;;10.20;99.90;;;;;;4880190;29;20466;-70
2024/03/23 11:32:44;;;;;;;4.60;3.40;;;10.20;99.90;;;;;;4880315;29;20921;-70
2024/03/23 11:35:11;;;;;;;7.00;3.10;;;10.30;99.90;;;;;;4880465;29;20533;-70
2024/03/23 11:37:38;;;;;;;3.20;2.53;;;10.30;99.90;;;;;;4880084;29;20498;-70
2024/03/23 11:40:19;;;;;;;6.77;3.30;;;10.30;99.90;;;;;;4879931;29;20450;-70
2024/03/23 11:42:46;;;;;;;5.70;2.83;;;10.40;99.90;;;;;;4879866;29;20478;-70
2024/03/23 11:45:16;;;;;;;5.27;2.40;;;10.40;99.90;;;;;;4879353;29;21020;-69
2024/03/23 11:47:42;;;;;;;6.83;3.10;;;10.50;99.90;;;;;;4879791;29;20457;-70
2024/03/23 11:50:09;;;;;;;5.90;2.40;;;10.50;99.90;;;;;;4895514;29;20477;-70
2024/03/23 11:52:36;;;;;;;5.30;2.87;;;10.50;99.90;;;;;;4879860;29;20454;-70
2024/03/23 11:55:08;;;;;;;5.07;3.27;;;10.60;99.90;;;;;;4879979;29;20963;-70
2024/03/23 11:57:34;;;;;;;5.50;2.77;;;10.60;99.90;;;;;;4879679;29;20454;-70
2024/03/23 12:00:22;;;;;;;4.23;2.60;;;10.60;99.90;;;;;;4879822;29;20869;-69
2024/03/23 12:02:49;;;;;;;6.20;2.50;;;10.40;99.90;;;;;;4880258;29;20458;-70
2024/03/23 12:05:17;;;;;;;6.50;2.40;;;10.30;99.90;;;;;;4879421;29;20454;-70
2024/03/23 12:07:43;;;;;;;4.83;2.90;;;10.10;99.90;;;;;;4879504;29;20458;-70
2024/03/23 12:10:10;;;;;;;4.70;3.00;;;9.90;99.90;;;;;;4879407;29;20963;-70
2024/03/23 12:12:37;;;;;;;6.40;3.63;;;9.80;99.90;;;;;;4879241;29;20525;-70
2024/03/23 12:15:07;;;;;;;6.07;3.37;;;9.70;99.90;;;;;;4879354;29;20533;-70
2024/03/23 12:17:34;;;;;;;4.30;2.70;;;9.60;99.90;;;;;;4879890;29;20931;-70
2024/03/23 12:20:02;;;;;;;4.33;1.70;;;9.50;99.90;;;;;;4879245;29;20838;-69
2024/03/23 12:22:29;;;;;;;2.63;1.40;;;9.40;99.90;;;;;;4879380;29;20566;-70
2024/03/23 12:24:56;;;;;;;4.10;1.20;;;9.20;99.90;;;;;;4879258;29;20902;-69
2024/03/23 12:27:23;;;;;;;4.10;1.30;;;9.00;99.90;;;;;;4879387;29;20453;-69
2024/03/23 12:29:50;;;;;;;3.50;1.10;;;8.80;99.90;;;;;;4879239;29;20824;-69
2024/03/23 12:32:18;;;;;;;2.57;1.10;;;8.60;99.90;;;;;;4879087;29;20502;-70
2024/03/23 12:34:47;;;;;;;2.40;1.00;;;8.50;99.90;;;;;;4879309;29;20970;-69
2024/03/23 12:37:13;;;;;;;3.97;1.40;;;8.40;99.90;;;;;;4879201;29;20991;-69
2024/03/23 12:39:40;;;;;;;3.00;1.23;;;8.40;99.90;;;;;;4879098;29;20446;-69
2024/03/23 12:42:07;;;;;;;3.97;1.33;;;8.40;99.90;;;;;;4878686;29;20625;-69
2024/03/23 12:44:34;;;;;;;4.30;1.10;;;8.40;99.90;;;;;;4878843;29;20446;-69
2024/03/23 12:47:00;;;;;;;2.43;1.10;;;8.50;99.90;;;;;;4879122;29;20482;-69
2024/03/23 12:49:29;;;;;;;3.27;1.40;;;8.50;99.90;;;;;;4878745;29;20450;-69
2024/03/23 12:51:56;;;;;;;2.77;1.23;;;8.50;99.90;;;;;;4878669;29;20514;-69